sensor_id;sensor_type;location;lat;lon;timestamp;P1;durP1;ratioP1;P2;durP2;ratioP2
57249;SDS011;43102;52.014;-0.680;2022-09-13T00:00:00;9.10;;;5.40;;
57249;SDS011;43102;52.014;-0.680;2022-09-13T00:01:00;9.10;;;5.40;;
57249;SDS011;43102;52.014;-0.680;2022-09-13T00:02:00;9.10;;;5.40;;
57249;SDS011;43102;52.014;-0.680;2022-09-13T00:03:00;9.10;;;5.40;;
57249;SDS011;43102;52.014;-0.680;2022-09-13T00:04:00;9.10;;;5.40;;
57249;SDS011;43102;52.014;-0.680;2022-09-13T00:05:00;9.10;;;5.40;;
57249;SDS011;43102;52.014;-0.680;2022-09-13T00:06:12;9.10;;;5.40;;
57249;SDS011;43102;52.014;-0.680;2022-09-13T00:07:00;9.10;;;5.40;;
57249;SDS011;43102;52.014;-0.680;2022-09-13T00:08:00;9.10;;;5.40;;
57249;SDS011;43102;52.014;-0.680;2022-09-13T00:09:00;9.10;;;5.40;;
57249;SDS011;43102;52.014;-0.680;2022-09-13T00:10:00;9.10;;;5.40;;
57249;SDS011;43102;52.014;-0.680;2022-09-13T00:11:00;9.10;;;5.40;;
57249;SDS011;43102;52.014;-0.680;2022-09-13T00:12:00;9.10;;;5.40;;
57249;SDS011;43102;52.014;-0.680;2022-09-13T00:13:00;9.10;;;5.40;;
57249;SDS011;43102;52.014;-0.680;2022-09-13T00:14:01;8.90;;;6.20;;
57249;SDS011;43102;52.014;-0.680;2022-09-13T00:15:00;8.90;;;6.20;;
57249;SDS011;43102;52.014;-0.680;2022-09-13T00:16:02;8.90;;;6.20;;
57249;SDS011;43102;52.014;-0.680;2022-09-13T00:17:00;8.90;;;6.20;;
57249;SDS011;43102;52.014;-0.680;2022-09-13T00:18:00;8.90;;;6.20;;
57249;SDS011;43102;52.014;-0.680;2022-09-13T00:19:00;8.90;;;6.20;;
57249;SDS011;43102;52.014;-0.680;2022-09-13T00:20:00;8.90;;;6.20;;
57249;SDS011;43102;52.014;-0.680;2022-09-13T00:21:10;8.90;;;6.20;;
57249;SDS011;43102;52.014;-0.680;2022-09-13T00:22:00;8.90;;;6.20;;
57249;SDS011;43102;52.014;-0.680;2022-09-13T00:23:00;8.90;;;6.20;;
57249;SDS011;43102;52.014;-0.680;2022-09-13T00:24:00;8.90;;;6.20;;
57249;SDS011;43102;52.014;-0.680;2022-09-13T00:25:01;8.90;;;6.20;;
57249;SDS011;43102;52.014;-0.680;2022-09-13T00:26:03;8.90;;;6.20;;
57249;SDS011;43102;52.014;-0.680;2022-09-13T00:27:00;8.90;;;6.20;;
57249;SDS011;43102;52.014;-0.680;2022-09-13T00:28:00;8.90;;;6.20;;
57249;SDS011;43102;52.014;-0.680;2022-09-13T00:29:01;8.90;;;6.20;;
57249;SDS011;43102;52.014;-0.680;2022-09-13T00:30:00;8.90;;;6.20;;
57249;SDS011;43102;52.014;-0.680;2022-09-13T00:31:01;8.90;;;6.20;;
57249;SDS011;43102;52.014;-0.680;2022-09-13T00:32:00;8.90;;;6.20;;
57249;SDS011;43102;52.014;-0.680;2022-09-13T00:33:03;8.90;;;6.20;;
57249;SDS011;43102;52.014;-0.680;2022-09-13T00:34:00;8.90;;;6.20;;
57249;SDS011;43102;52.014;-0.680;2022-09-13T00:35:02;8.90;;;6.20;;
57249;SDS011;43102;52.014;-0.680;2022-09-13T00:36:09;8.90;;;6.20;;
57249;SDS011;43102;52.014;-0.680;2022-09-13T00:37:00;8.90;;;6.20;;
57249;SDS011;43102;52.014;-0.680;2022-09-13T00:38:00;8.90;;;6.20;;
57249;SDS011;43102;52.014;-0.680;2022-09-13T00:39:00;8.90;;;6.20;;
57249;SDS011;43102;52.014;-0.680;2022-09-13T00:40:01;8.90;;;6.20;;
57249;SDS011;43102;52.014;-0.680;2022-09-13T00:41:00;8.90;;;6.20;;
57249;SDS011;43102;52.014;-0.680;2022-09-13T00:42:00;8.90;;;6.20;;
57249;SDS011;43102;52.014;-0.680;2022-09-13T00:43:00;8.90;;;6.20;;
57249;SDS011;43102;52.014;-0.680;2022-09-13T00:44:01;6.30;;;4.80;;
57249;SDS011;43102;52.014;-0.680;2022-09-13T00:46:00;6.30;;;4.80;;
57249;SDS011;43102;52.014;-0.680;2022-09-13T00:47:00;6.30;;;4.80;;
57249;SDS011;43102;52.014;-0.680;2022-09-13T00:48:04;6.30;;;4.80;;
57249;SDS011;43102;52.014;-0.680;2022-09-13T00:49:10;6.30;;;4.80;;
57249;SDS011;43102;52.014;-0.680;2022-09-13T00:50:05;6.30;;;4.80;;
57249;SDS011;43102;52.014;-0.680;2022-09-13T00:51:01;6.30;;;4.80;;
57249;SDS011;43102;52.014;-0.680;2022-09-13T00:52:04;6.30;;;4.80;;
57249;SDS011;43102;52.014;-0.680;2022-09-13T00:53:05;6.30;;;4.80;;
57249;SDS011;43102;52.014;-0.680;2022-09-13T00:54:01;6.30;;;4.80;;
57249;SDS011;43102;52.014;-0.680;2022-09-13T00:55:05;6.30;;;4.80;;
57249;SDS011;43102;52.014;-0.680;2022-09-13T00:56:05;6.30;;;4.80;;
57249;SDS011;43102;52.014;-0.680;2022-09-13T00:57:02;6.30;;;4.80;;
57249;SDS011;43102;52.014;-0.680;2022-09-13T00:58:12;6.30;;;4.80;;
57249;SDS011;43102;52.014;-0.680;2022-09-13T00:59:06;6.30;;;4.80;;
57249;SDS011;43102;52.014;-0.680;2022-09-13T01:00:08;6.30;;;4.80;;
57249;SDS011;43102;52.014;-0.680;2022-09-13T01:01:02;6.30;;;4.80;;
57249;SDS011;43102;52.014;-0.680;2022-09-13T01:02:01;6.30;;;4.80;;
57249;SDS011;43102;52.014;-0.680;2022-09-13T01:03:04;6.30;;;4.80;;
57249;SDS011;43102;52.014;-0.680;2022-09-13T01:04:00;6.30;;;4.80;;
57249;SDS011;43102;52.014;-0.680;2022-09-13T01:05:01;6.30;;;4.80;;
57249;SDS011;43102;52.014;-0.680;2022-09-13T01:06:09;6.30;;;4.80;;
57249;SDS011;43102;52.014;-0.680;2022-09-13T01:07:03;6.30;;;4.80;;
57249;SDS011;43102;52.014;-0.680;2022-09-13T01:08:01;6.30;;;4.80;;
57249;SDS011;43102;52.014;-0.680;2022-09-13T01:09:03;6.30;;;4.80;;
57249;SDS011;43102;52.014;-0.680;2022-09-13T01:10:02;6.30;;;4.80;;
57249;SDS011;43102;52.014;-0.680;2022-09-13T01:11:03;6.30;;;4.80;;
57249;SDS011;43102;52.014;-0.680;2022-09-13T01:12:11;6.30;;;4.80;;
57249;SDS011;43102;52.014;-0.680;2022-09-13T01:13:12;8.30;;;5.90;;
57249;SDS011;43102;52.014;-0.680;2022-09-13T01:14:00;8.30;;;5.90;;
57249;SDS011;43102;52.014;-0.680;2022-09-13T01:15:00;8.30;;;5.90;;
57249;SDS011;43102;52.014;-0.680;2022-09-13T01:16:00;8.30;;;5.90;;
57249;SDS011;43102;52.014;-0.680;2022-09-13T01:17:00;8.30;;;5.90;;
57249;SDS011;43102;52.014;-0.680;2022-09-13T01:18:00;8.30;;;5.90;;
57249;SDS011;43102;52.014;-0.680;2022-09-13T01:19:00;8.30;;;5.90;;
57249;SDS011;43102;52.014;-0.680;2022-09-13T01:20:02;8.30;;;5.90;;
57249;SDS011;43102;52.014;-0.680;2022-09-13T01:23:16;8.30;;;5.90;;
57249;SDS011;43102;52.014;-0.680;2022-09-13T01:24:46;8.30;;;5.90;;
57249;SDS011;43102;52.014;-0.680;2022-09-13T01:29:09;8.30;;;5.90;;
57249;SDS011;43102;52.014;-0.680;2022-09-13T01:31:06;8.30;;;5.90;;
57249;SDS011;43102;52.014;-0.680;2022-09-13T01:33:04;8.30;;;5.90;;
57249;SDS011;43102;52.014;-0.680;2022-09-13T01:34:05;8.30;;;5.90;;
57249;SDS011;43102;52.014;-0.680;2022-09-13T01:36:06;8.30;;;5.90;;
57249;SDS011;43102;52.014;-0.680;2022-09-13T01:37:15;8.30;;;5.90;;
57249;SDS011;43102;52.014;-0.680;2022-09-13T01:39:05;8.30;;;5.90;;
57249;SDS011;43102;52.014;-0.680;2022-09-13T01:40:11;8.30;;;5.90;;
57249;SDS011;43102;52.014;-0.680;2022-09-13T01:41:25;8.30;;;5.90;;
57249;SDS011;43102;52.014;-0.680;2022-09-13T01:44:13;4.20;;;3.30;;
57249;SDS011;43102;52.014;-0.680;2022-09-13T01:46:05;4.20;;;3.30;;
57249;SDS011;43102;52.014;-0.680;2022-09-13T01:48:07;4.20;;;3.30;;
57249;SDS011;43102;52.014;-0.680;2022-09-13T01:51:08;4.20;;;3.30;;
57249;SDS011;43102;52.014;-0.680;2022-09-13T01:53:04;4.20;;;3.30;;
57249;SDS011;43102;52.014;-0.680;2022-09-13T01:54:05;4.20;;;3.30;;
57249;SDS011;43102;52.014;-0.680;2022-09-13T01:56:11;4.20;;;3.30;;
57249;SDS011;43102;52.014;-0.680;2022-09-13T01:57:20;4.20;;;3.30;;
57249;SDS011;43102;52.014;-0.680;2022-09-13T01:58:15;4.20;;;3.30;;
57249;SDS011;43102;52.014;-0.680;2022-09-13T01:59:06;4.20;;;3.30;;
57249;SDS011;43102;52.014;-0.680;2022-09-13T02:00:04;4.20;;;3.30;;
57249;SDS011;43102;52.014;-0.680;2022-09-13T02:01:17;4.20;;;3.30;;
57249;SDS011;43102;52.014;-0.680;2022-09-13T02:02:05;4.20;;;3.30;;
57249;SDS011;43102;52.014;-0.680;2022-09-13T02:03:08;4.20;;;3.30;;
57249;SDS011;43102;52.014;-0.680;2022-09-13T02:04:06;4.20;;;3.30;;
57249;SDS011;43102;52.014;-0.680;2022-09-13T02:05:13;4.20;;;3.30;;
57249;SDS011;43102;52.014;-0.680;2022-09-13T02:06:07;4.20;;;3.30;;
57249;SDS011;43102;52.014;-0.680;2022-09-13T02:07:05;4.20;;;3.30;;
57249;SDS011;43102;52.014;-0.680;2022-09-13T02:08:06;4.20;;;3.30;;
57249;SDS011;43102;52.014;-0.680;2022-09-13T02:09:03;4.20;;;3.30;;
57249;SDS011;43102;52.014;-0.680;2022-09-13T02:10:08;4.20;;;3.30;;
57249;SDS011;43102;52.014;-0.680;2022-09-13T02:11:08;4.20;;;3.30;;
57249;SDS011;43102;52.014;-0.680;2022-09-13T02:12:05;4.20;;;3.30;;
57249;SDS011;43102;52.014;-0.680;2022-09-13T02:13:04;4.20;;;3.30;;
57249;SDS011;43102;52.014;-0.680;2022-09-13T02:14:03;3.60;;;3.00;;
57249;SDS011;43102;52.014;-0.680;2022-09-13T02:15:07;3.60;;;3.00;;
57249;SDS011;43102;52.014;-0.680;2022-09-13T02:16:07;3.60;;;3.00;;
57249;SDS011;43102;52.014;-0.680;2022-09-13T02:17:03;3.60;;;3.00;;
57249;SDS011;43102;52.014;-0.680;2022-09-13T02:19:07;3.60;;;3.00;;
57249;SDS011;43102;52.014;-0.680;2022-09-13T02:20:04;3.60;;;3.00;;
57249;SDS011;43102;52.014;-0.680;2022-09-13T02:21:06;3.60;;;3.00;;
57249;SDS011;43102;52.014;-0.680;2022-09-13T02:22:02;3.60;;;3.00;;
57249;SDS011;43102;52.014;-0.680;2022-09-13T02:23:03;3.60;;;3.00;;
57249;SDS011;43102;52.014;-0.680;2022-09-13T02:24:05;3.60;;;3.00;;
57249;SDS011;43102;52.014;-0.680;2022-09-13T02:25:12;3.60;;;3.00;;
57249;SDS011;43102;52.014;-0.680;2022-09-13T02:26:03;3.60;;;3.00;;
57249;SDS011;43102;52.014;-0.680;2022-09-13T02:27:05;3.60;;;3.00;;
57249;SDS011;43102;52.014;-0.680;2022-09-13T02:28:03;3.60;;;3.00;;
57249;SDS011;43102;52.014;-0.680;2022-09-13T02:29:04;3.60;;;3.00;;
57249;SDS011;43102;52.014;-0.680;2022-09-13T02:30:04;3.60;;;3.00;;
57249;SDS011;43102;52.014;-0.680;2022-09-13T02:31:02;3.60;;;3.00;;
57249;SDS011;43102;52.014;-0.680;2022-09-13T02:32:07;3.60;;;3.00;;
57249;SDS011;43102;52.014;-0.680;2022-09-13T02:33:11;3.60;;;3.00;;
57249;SDS011;43102;52.014;-0.680;2022-09-13T02:34:05;3.60;;;3.00;;
57249;SDS011;43102;52.014;-0.680;2022-09-13T02:35:05;3.60;;;3.00;;
57249;SDS011;43102;52.014;-0.680;2022-09-13T02:36:01;3.60;;;3.00;;
57249;SDS011;43102;52.014;-0.680;2022-09-13T02:37:01;3.60;;;3.00;;
57249;SDS011;43102;52.014;-0.680;2022-09-13T02:38:05;3.60;;;3.00;;
57249;SDS011;43102;52.014;-0.680;2022-09-13T02:39:03;3.60;;;3.00;;
57249;SDS011;43102;52.014;-0.680;2022-09-13T02:40:06;3.60;;;3.00;;
57249;SDS011;43102;52.014;-0.680;2022-09-13T02:41:05;3.60;;;3.00;;
57249;SDS011;43102;52.014;-0.680;2022-09-13T02:42:20;3.60;;;3.00;;
57249;SDS011;43102;52.014;-0.680;2022-09-13T02:43:07;3.40;;;3.10;;
57249;SDS011;43102;52.014;-0.680;2022-09-13T02:44:12;3.40;;;3.10;;
57249;SDS011;43102;52.014;-0.680;2022-09-13T02:45:00;3.40;;;3.10;;
57249;SDS011;43102;52.014;-0.680;2022-09-13T02:46:13;3.40;;;3.10;;
57249;SDS011;43102;52.014;-0.680;2022-09-13T02:48:05;3.40;;;3.10;;
57249;SDS011;43102;52.014;-0.680;2022-09-13T02:49:10;3.40;;;3.10;;
57249;SDS011;43102;52.014;-0.680;2022-09-13T02:50:13;3.40;;;3.10;;
57249;SDS011;43102;52.014;-0.680;2022-09-13T02:51:05;3.40;;;3.10;;
57249;SDS011;43102;52.014;-0.680;2022-09-13T02:53:04;3.40;;;3.10;;
57249;SDS011;43102;52.014;-0.680;2022-09-13T02:54:08;3.40;;;3.10;;
57249;SDS011;43102;52.014;-0.680;2022-09-13T02:56:06;3.40;;;3.10;;
57249;SDS011;43102;52.014;-0.680;2022-09-13T02:57:04;3.40;;;3.10;;
57249;SDS011;43102;52.014;-0.680;2022-09-13T02:58:07;3.40;;;3.10;;
57249;SDS011;43102;52.014;-0.680;2022-09-13T03:00:00;3.40;;;3.10;;
57249;SDS011;43102;52.014;-0.680;2022-09-13T03:01:00;3.40;;;3.10;;
57249;SDS011;43102;52.014;-0.680;2022-09-13T03:02:04;3.40;;;3.10;;
57249;SDS011;43102;52.014;-0.680;2022-09-13T03:03:04;3.40;;;3.10;;
57249;SDS011;43102;52.014;-0.680;2022-09-13T03:04:00;3.40;;;3.10;;
57249;SDS011;43102;52.014;-0.680;2022-09-13T03:05:01;3.40;;;3.10;;
57249;SDS011;43102;52.014;-0.680;2022-09-13T03:06:01;3.40;;;3.10;;
57249;SDS011;43102;52.014;-0.680;2022-09-13T03:07:04;3.40;;;3.10;;
57249;SDS011;43102;52.014;-0.680;2022-09-13T03:08:01;3.40;;;3.10;;
57249;SDS011;43102;52.014;-0.680;2022-09-13T03:09:03;3.40;;;3.10;;
57249;SDS011;43102;52.014;-0.680;2022-09-13T03:10:05;3.40;;;3.10;;
57249;SDS011;43102;52.014;-0.680;2022-09-13T03:13:14;4.50;;;2.90;;
57249;SDS011;43102;52.014;-0.680;2022-09-13T03:15:10;4.50;;;2.90;;
57249;SDS011;43102;52.014;-0.680;2022-09-13T03:16:21;4.50;;;2.90;;
57249;SDS011;43102;52.014;-0.680;2022-09-13T03:20:05;4.50;;;2.90;;
57249;SDS011;43102;52.014;-0.680;2022-09-13T03:21:20;4.50;;;2.90;;
57249;SDS011;43102;52.014;-0.680;2022-09-13T03:22:13;4.50;;;2.90;;
57249;SDS011;43102;52.014;-0.680;2022-09-13T03:23:13;4.50;;;2.90;;
57249;SDS011;43102;52.014;-0.680;2022-09-13T03:24:08;4.50;;;2.90;;
57249;SDS011;43102;52.014;-0.680;2022-09-13T03:25:13;4.50;;;2.90;;
57249;SDS011;43102;52.014;-0.680;2022-09-13T03:30:05;4.50;;;2.90;;
57249;SDS011;43102;52.014;-0.680;2022-09-13T03:31:08;4.50;;;2.90;;
57249;SDS011;43102;52.014;-0.680;2022-09-13T03:32:11;4.50;;;2.90;;
57249;SDS011;43102;52.014;-0.680;2022-09-13T03:33:05;4.50;;;2.90;;
57249;SDS011;43102;52.014;-0.680;2022-09-13T03:34:09;4.50;;;2.90;;
57249;SDS011;43102;52.014;-0.680;2022-09-13T03:36:11;4.50;;;2.90;;
57249;SDS011;43102;52.014;-0.680;2022-09-13T03:37:07;4.50;;;2.90;;
57249;SDS011;43102;52.014;-0.680;2022-09-13T03:38:07;4.50;;;2.90;;
57249;SDS011;43102;52.014;-0.680;2022-09-13T03:40:09;4.50;;;2.90;;
57249;SDS011;43102;52.014;-0.680;2022-09-13T03:41:07;4.50;;;2.90;;
57249;SDS011;43102;52.014;-0.680;2022-09-13T03:42:13;4.50;;;2.90;;
57249;SDS011;43102;52.014;-0.680;2022-09-13T03:43:07;5.10;;;3.60;;
57249;SDS011;43102;52.014;-0.680;2022-09-13T03:44:04;5.10;;;3.60;;
57249;SDS011;43102;52.014;-0.680;2022-09-13T03:45:02;5.10;;;3.60;;
57249;SDS011;43102;52.014;-0.680;2022-09-13T03:46:07;5.10;;;3.60;;
57249;SDS011;43102;52.014;-0.680;2022-09-13T03:47:01;5.10;;;3.60;;
57249;SDS011;43102;52.014;-0.680;2022-09-13T03:48:02;5.10;;;3.60;;
57249;SDS011;43102;52.014;-0.680;2022-09-13T03:49:06;5.10;;;3.60;;
57249;SDS011;43102;52.014;-0.680;2022-09-13T03:50:01;5.10;;;3.60;;
57249;SDS011;43102;52.014;-0.680;2022-09-13T03:51:00;5.10;;;3.60;;
57249;SDS011;43102;52.014;-0.680;2022-09-13T03:52:00;5.10;;;3.60;;
57249;SDS011;43102;52.014;-0.680;2022-09-13T03:53:04;5.10;;;3.60;;
57249;SDS011;43102;52.014;-0.680;2022-09-13T03:54:02;5.10;;;3.60;;
57249;SDS011;43102;52.014;-0.680;2022-09-13T03:55:01;5.10;;;3.60;;
57249;SDS011;43102;52.014;-0.680;2022-09-13T03:56:00;5.10;;;3.60;;
57249;SDS011;43102;52.014;-0.680;2022-09-13T03:57:17;5.10;;;3.60;;
57249;SDS011;43102;52.014;-0.680;2022-09-13T03:58:00;5.10;;;3.60;;
57249;SDS011;43102;52.014;-0.680;2022-09-13T03:59:00;5.10;;;3.60;;
57249;SDS011;43102;52.014;-0.680;2022-09-13T04:00:00;5.10;;;3.60;;
57249;SDS011;43102;52.014;-0.680;2022-09-13T04:01:00;5.10;;;3.60;;
57249;SDS011;43102;52.014;-0.680;2022-09-13T04:02:00;5.10;;;3.60;;
57249;SDS011;43102;52.014;-0.680;2022-09-13T04:03:00;5.10;;;3.60;;
57249;SDS011;43102;52.014;-0.680;2022-09-13T04:04:00;5.10;;;3.60;;
57249;SDS011;43102;52.014;-0.680;2022-09-13T04:05:00;5.10;;;3.60;;
57249;SDS011;43102;52.014;-0.680;2022-09-13T04:06:00;5.10;;;3.60;;
57249;SDS011;43102;52.014;-0.680;2022-09-13T04:07:03;5.10;;;3.60;;
57249;SDS011;43102;52.014;-0.680;2022-09-13T04:08:01;5.10;;;3.60;;
57249;SDS011;43102;52.014;-0.680;2022-09-13T04:09:00;5.10;;;3.60;;
57249;SDS011;43102;52.014;-0.680;2022-09-13T04:10:00;5.10;;;3.60;;
57249;SDS011;43102;52.014;-0.680;2022-09-13T04:11:00;5.10;;;3.60;;
57249;SDS011;43102;52.014;-0.680;2022-09-13T04:12:00;5.10;;;3.60;;
57249;SDS011;43102;52.014;-0.680;2022-09-13T04:13:01;5.10;;;3.60;;
57249;SDS011;43102;52.014;-0.680;2022-09-13T04:14:00;6.70;;;3.40;;
57249;SDS011;43102;52.014;-0.680;2022-09-13T04:15:00;6.70;;;3.40;;
57249;SDS011;43102;52.014;-0.680;2022-09-13T04:16:01;6.70;;;3.40;;
57249;SDS011;43102;52.014;-0.680;2022-09-13T04:17:00;6.70;;;3.40;;
57249;SDS011;43102;52.014;-0.680;2022-09-13T04:18:00;6.70;;;3.40;;
57249;SDS011;43102;52.014;-0.680;2022-09-13T04:19:00;6.70;;;3.40;;
57249;SDS011;43102;52.014;-0.680;2022-09-13T04:20:00;6.70;;;3.40;;
57249;SDS011;43102;52.014;-0.680;2022-09-13T04:21:01;6.70;;;3.40;;
57249;SDS011;43102;52.014;-0.680;2022-09-13T04:22:00;6.70;;;3.40;;
57249;SDS011;43102;52.014;-0.680;2022-09-13T04:23:00;6.70;;;3.40;;
57249;SDS011;43102;52.014;-0.680;2022-09-13T04:24:00;6.70;;;3.40;;
57249;SDS011;43102;52.014;-0.680;2022-09-13T04:25:02;6.70;;;3.40;;
57249;SDS011;43102;52.014;-0.680;2022-09-13T04:26:02;6.70;;;3.40;;
57249;SDS011;43102;52.014;-0.680;2022-09-13T04:27:00;6.70;;;3.40;;
57249;SDS011;43102;52.014;-0.680;2022-09-13T04:28:00;6.70;;;3.40;;
57249;SDS011;43102;52.014;-0.680;2022-09-13T04:29:00;6.70;;;3.40;;
57249;SDS011;43102;52.014;-0.680;2022-09-13T04:30:01;6.70;;;3.40;;
57249;SDS011;43102;52.014;-0.680;2022-09-13T04:31:00;6.70;;;3.40;;
57249;SDS011;43102;52.014;-0.680;2022-09-13T04:32:01;6.70;;;3.40;;
57249;SDS011;43102;52.014;-0.680;2022-09-13T04:33:00;6.70;;;3.40;;
57249;SDS011;43102;52.014;-0.680;2022-09-13T04:34:00;6.70;;;3.40;;
57249;SDS011;43102;52.014;-0.680;2022-09-13T04:35:00;6.70;;;3.40;;
57249;SDS011;43102;52.014;-0.680;2022-09-13T04:36:00;6.70;;;3.40;;
57249;SDS011;43102;52.014;-0.680;2022-09-13T04:37:00;6.70;;;3.40;;
57249;SDS011;43102;52.014;-0.680;2022-09-13T04:38:00;6.70;;;3.40;;
57249;SDS011;43102;52.014;-0.680;2022-09-13T04:39:01;6.70;;;3.40;;
57249;SDS011;43102;52.014;-0.680;2022-09-13T04:40:00;6.70;;;3.40;;
57249;SDS011;43102;52.014;-0.680;2022-09-13T04:41:00;6.70;;;3.40;;
57249;SDS011;43102;52.014;-0.680;2022-09-13T04:42:01;6.70;;;3.40;;
57249;SDS011;43102;52.014;-0.680;2022-09-13T04:43:01;6.70;;;3.40;;
57249;SDS011;43102;52.014;-0.680;2022-09-13T04:44:01;6.30;;;4.50;;
57249;SDS011;43102;52.014;-0.680;2022-09-13T04:45:00;6.30;;;4.50;;
57249;SDS011;43102;52.014;-0.680;2022-09-13T04:46:00;6.30;;;4.50;;
57249;SDS011;43102;52.014;-0.680;2022-09-13T04:47:00;6.30;;;4.50;;
57249;SDS011;43102;52.014;-0.680;2022-09-13T04:48:00;6.30;;;4.50;;
57249;SDS011;43102;52.014;-0.680;2022-09-13T04:49:00;6.30;;;4.50;;
57249;SDS011;43102;52.014;-0.680;2022-09-13T04:50:00;6.30;;;4.50;;
57249;SDS011;43102;52.014;-0.680;2022-09-13T04:51:03;6.30;;;4.50;;
57249;SDS011;43102;52.014;-0.680;2022-09-13T04:52:00;6.30;;;4.50;;
57249;SDS011;43102;52.014;-0.680;2022-09-13T04:53:01;6.30;;;4.50;;
57249;SDS011;43102;52.014;-0.680;2022-09-13T04:54:00;6.30;;;4.50;;
57249;SDS011;43102;52.014;-0.680;2022-09-13T04:55:01;6.30;;;4.50;;
57249;SDS011;43102;52.014;-0.680;2022-09-13T04:56:01;6.30;;;4.50;;
57249;SDS011;43102;52.014;-0.680;2022-09-13T04:57:00;6.30;;;4.50;;
57249;SDS011;43102;52.014;-0.680;2022-09-13T04:58:00;6.30;;;4.50;;
57249;SDS011;43102;52.014;-0.680;2022-09-13T04:59:00;6.30;;;4.50;;
57249;SDS011;43102;52.014;-0.680;2022-09-13T05:00:00;6.30;;;4.50;;
57249;SDS011;43102;52.014;-0.680;2022-09-13T05:01:02;6.30;;;4.50;;
57249;SDS011;43102;52.014;-0.680;2022-09-13T05:02:00;6.30;;;4.50;;
57249;SDS011;43102;52.014;-0.680;2022-09-13T05:03:00;6.30;;;4.50;;
57249;SDS011;43102;52.014;-0.680;2022-09-13T05:04:00;6.30;;;4.50;;
57249;SDS011;43102;52.014;-0.680;2022-09-13T05:05:00;6.30;;;4.50;;
57249;SDS011;43102;52.014;-0.680;2022-09-13T05:06:11;6.30;;;4.50;;
57249;SDS011;43102;52.014;-0.680;2022-09-13T05:07:00;6.30;;;4.50;;
57249;SDS011;43102;52.014;-0.680;2022-09-13T05:08:00;6.30;;;4.50;;
57249;SDS011;43102;52.014;-0.680;2022-09-13T05:09:00;6.30;;;4.50;;
57249;SDS011;43102;52.014;-0.680;2022-09-13T05:10:00;6.30;;;4.50;;
57249;SDS011;43102;52.014;-0.680;2022-09-13T05:11:01;6.30;;;4.50;;
57249;SDS011;43102;52.014;-0.680;2022-09-13T05:12:00;6.30;;;4.50;;
57249;SDS011;43102;52.014;-0.680;2022-09-13T05:13:00;6.30;;;4.50;;
57249;SDS011;43102;52.014;-0.680;2022-09-13T05:14:00;4.70;;;2.60;;
57249;SDS011;43102;52.014;-0.680;2022-09-13T05:15:00;4.70;;;2.60;;
57249;SDS011;43102;52.014;-0.680;2022-09-13T05:16:03;4.70;;;2.60;;
57249;SDS011;43102;52.014;-0.680;2022-09-13T05:17:00;4.70;;;2.60;;
57249;SDS011;43102;52.014;-0.680;2022-09-13T05:18:00;4.70;;;2.60;;
57249;SDS011;43102;52.014;-0.680;2022-09-13T05:19:00;4.70;;;2.60;;
57249;SDS011;43102;52.014;-0.680;2022-09-13T05:20:00;4.70;;;2.60;;
57249;SDS011;43102;52.014;-0.680;2022-09-13T05:21:02;4.70;;;2.60;;
57249;SDS011;43102;52.014;-0.680;2022-09-13T05:22:01;4.70;;;2.60;;
57249;SDS011;43102;52.014;-0.680;2022-09-13T05:23:00;4.70;;;2.60;;
57249;SDS011;43102;52.014;-0.680;2022-09-13T05:24:00;4.70;;;2.60;;
57249;SDS011;43102;52.014;-0.680;2022-09-13T05:25:00;4.70;;;2.60;;
57249;SDS011;43102;52.014;-0.680;2022-09-13T05:26:02;4.70;;;2.60;;
57249;SDS011;43102;52.014;-0.680;2022-09-13T05:27:00;4.70;;;2.60;;
57249;SDS011;43102;52.014;-0.680;2022-09-13T05:28:00;4.70;;;2.60;;
57249;SDS011;43102;52.014;-0.680;2022-09-13T05:29:00;4.70;;;2.60;;
57249;SDS011;43102;52.014;-0.680;2022-09-13T05:30:00;4.70;;;2.60;;
57249;SDS011;43102;52.014;-0.680;2022-09-13T05:32:00;4.70;;;2.60;;
57249;SDS011;43102;52.014;-0.680;2022-09-13T05:33:00;4.70;;;2.60;;
57249;SDS011;43102;52.014;-0.680;2022-09-13T05:34:03;4.70;;;2.60;;
57249;SDS011;43102;52.014;-0.680;2022-09-13T05:35:00;4.70;;;2.60;;
57249;SDS011;43102;52.014;-0.680;2022-09-13T05:36:01;4.70;;;2.60;;
57249;SDS011;43102;52.014;-0.680;2022-09-13T05:37:00;4.70;;;2.60;;
57249;SDS011;43102;52.014;-0.680;2022-09-13T05:38:00;4.70;;;2.60;;
57249;SDS011;43102;52.014;-0.680;2022-09-13T05:39:12;4.70;;;2.60;;
57249;SDS011;43102;52.014;-0.680;2022-09-13T05:40:10;4.70;;;2.60;;
57249;SDS011;43102;52.014;-0.680;2022-09-13T05:41:02;4.70;;;2.60;;
57249;SDS011;43102;52.014;-0.680;2022-09-13T05:42:00;4.70;;;2.60;;
57249;SDS011;43102;52.014;-0.680;2022-09-13T05:43:00;4.70;;;2.60;;
57249;SDS011;43102;52.014;-0.680;2022-09-13T05:44:10;4.50;;;2.40;;
57249;SDS011;43102;52.014;-0.680;2022-09-13T05:45:00;4.50;;;2.40;;
57249;SDS011;43102;52.014;-0.680;2022-09-13T05:46:02;4.50;;;2.40;;
57249;SDS011;43102;52.014;-0.680;2022-09-13T05:47:00;4.50;;;2.40;;
57249;SDS011;43102;52.014;-0.680;2022-09-13T05:48:00;4.50;;;2.40;;
57249;SDS011;43102;52.014;-0.680;2022-09-13T05:49:00;4.50;;;2.40;;
57249;SDS011;43102;52.014;-0.680;2022-09-13T05:50:10;4.50;;;2.40;;
57249;SDS011;43102;52.014;-0.680;2022-09-13T05:51:18;4.50;;;2.40;;
57249;SDS011;43102;52.014;-0.680;2022-09-13T05:52:00;4.50;;;2.40;;
57249;SDS011;43102;52.014;-0.680;2022-09-13T05:53:00;4.50;;;2.40;;
57249;SDS011;43102;52.014;-0.680;2022-09-13T05:54:00;4.50;;;2.40;;
57249;SDS011;43102;52.014;-0.680;2022-09-13T05:55:00;4.50;;;2.40;;
57249;SDS011;43102;52.014;-0.680;2022-09-13T05:56:00;4.50;;;2.40;;
57249;SDS011;43102;52.014;-0.680;2022-09-13T05:57:00;4.50;;;2.40;;
57249;SDS011;43102;52.014;-0.680;2022-09-13T05:58:01;4.50;;;2.40;;
57249;SDS011;43102;52.014;-0.680;2022-09-13T05:59:00;4.50;;;2.40;;
57249;SDS011;43102;52.014;-0.680;2022-09-13T06:00:00;4.50;;;2.40;;
57249;SDS011;43102;52.014;-0.680;2022-09-13T06:01:00;4.50;;;2.40;;
57249;SDS011;43102;52.014;-0.680;2022-09-13T06:02:00;4.50;;;2.40;;
57249;SDS011;43102;52.014;-0.680;2022-09-13T06:03:00;4.50;;;2.40;;
57249;SDS011;43102;52.014;-0.680;2022-09-13T06:04:00;4.50;;;2.40;;
57249;SDS011;43102;52.014;-0.680;2022-09-13T06:05:00;4.50;;;2.40;;
57249;SDS011;43102;52.014;-0.680;2022-09-13T06:06:00;4.50;;;2.40;;
57249;SDS011;43102;52.014;-0.680;2022-09-13T06:07:00;4.50;;;2.40;;
57249;SDS011;43102;52.014;-0.680;2022-09-13T06:08:00;4.50;;;2.40;;
57249;SDS011;43102;52.014;-0.680;2022-09-13T06:09:00;4.50;;;2.40;;
57249;SDS011;43102;52.014;-0.680;2022-09-13T06:10:00;4.50;;;2.40;;
57249;SDS011;43102;52.014;-0.680;2022-09-13T06:11:02;4.50;;;2.40;;
57249;SDS011;43102;52.014;-0.680;2022-09-13T06:12:00;4.50;;;2.40;;
57249;SDS011;43102;52.014;-0.680;2022-09-13T06:13:00;4.50;;;2.40;;
57249;SDS011;43102;52.014;-0.680;2022-09-13T06:14:00;3.70;;;1.90;;
57249;SDS011;43102;52.014;-0.680;2022-09-13T06:15:00;3.70;;;1.90;;
57249;SDS011;43102;52.014;-0.680;2022-09-13T06:16:02;3.70;;;1.90;;
57249;SDS011;43102;52.014;-0.680;2022-09-13T06:17:00;3.70;;;1.90;;
57249;SDS011;43102;52.014;-0.680;2022-09-13T06:18:00;3.70;;;1.90;;
57249;SDS011;43102;52.014;-0.680;2022-09-13T06:19:00;3.70;;;1.90;;
57249;SDS011;43102;52.014;-0.680;2022-09-13T06:20:00;3.70;;;1.90;;
57249;SDS011;43102;52.014;-0.680;2022-09-13T06:21:04;3.70;;;1.90;;
57249;SDS011;43102;52.014;-0.680;2022-09-13T06:22:00;3.70;;;1.90;;
57249;SDS011;43102;52.014;-0.680;2022-09-13T06:23:00;3.70;;;1.90;;
57249;SDS011;43102;52.014;-0.680;2022-09-13T06:24:00;3.70;;;1.90;;
57249;SDS011;43102;52.014;-0.680;2022-09-13T06:25:00;3.70;;;1.90;;
57249;SDS011;43102;52.014;-0.680;2022-09-13T06:26:05;3.70;;;1.90;;
57249;SDS011;43102;52.014;-0.680;2022-09-13T06:27:00;3.70;;;1.90;;
57249;SDS011;43102;52.014;-0.680;2022-09-13T06:28:00;3.70;;;1.90;;
57249;SDS011;43102;52.014;-0.680;2022-09-13T06:29:00;3.70;;;1.90;;
57249;SDS011;43102;52.014;-0.680;2022-09-13T06:30:00;3.70;;;1.90;;
57249;SDS011;43102;52.014;-0.680;2022-09-13T06:31:10;3.70;;;1.90;;
57249;SDS011;43102;52.014;-0.680;2022-09-13T06:32:00;3.70;;;1.90;;